sensor_id;sensor_type;location;lat;lon;timestamp;pressure;altitude;pressure_sealevel;temperature;humidity
46942;BME280;32676;52.630;4.896;2023-03-12T00:01:30;100206.94;;;2.69;80.30
46942;BME280;32676;52.630;4.896;2023-03-12T00:04:00;100207.78;;;2.72;80.21
46942;BME280;32676;52.630;4.896;2023-03-12T00:06:27;100202.59;;;2.72;80.38
46942;BME280;32676;52.630;4.896;2023-03-12T00:08:54;100207.78;;;2.72;80.21
46942;BME280;32676;52.630;4.896;2023-03-12T00:11:20;100215.50;;;2.75;80.22
46942;BME280;32676;52.630;4.896;2023-03-12T00:13:48;100236.22;;;2.79;80.12
46942;BME280;32676;52.630;4.896;2023-03-12T00:16:15;100232.78;;;2.79;80.27
46942;BME280;32676;52.630;4.896;2023-03-12T00:18:46;100226.75;;;2.77;80.19
46942;BME280;32676;52.630;4.896;2023-03-12T00:21:13;100218.09;;;2.75;80.21
46942;BME280;32676;52.630;4.896;2023-03-12T00:23:40;100206.88;;;2.73;80.23
46942;BME280;32676;52.630;4.896;2023-03-12T00:26:09;100207.78;;;2.72;80.25
46942;BME280;32676;52.630;4.896;2023-03-12T00:28:36;100204.34;;;2.69;80.37
46942;BME280;32676;52.630;4.896;2023-03-12T00:31:11;100197.41;;;2.68;80.35
46942;BME280;32676;52.630;4.896;2023-03-12T00:33:38;100187.06;;;2.65;80.71
46942;BME280;32676;52.630;4.896;2023-03-12T00:36:07;100173.31;;;2.60;80.78
46942;BME280;32676;52.630;4.896;2023-03-12T00:38:33;100179.31;;;2.64;80.82
46942;BME280;32676;52.630;4.896;2023-03-12T00:41:00;100187.06;;;2.65;80.83
46942;BME280;32676;52.630;4.896;2023-03-12T00:43:27;100185.34;;;2.67;80.90
46942;BME280;32676;52.630;4.896;2023-03-12T00:45:53;100199.16;;;2.69;80.94
46942;BME280;32676;52.630;4.896;2023-03-12T00:48:20;100199.16;;;2.69;80.97
46942;BME280;32676;52.630;4.896;2023-03-12T00:50:46;100205.19;;;2.70;80.97
46942;BME280;32676;52.630;4.896;2023-03-12T00:53:14;100206.03;;;2.71;80.90
46942;BME280;32676;52.630;4.896;2023-03-12T00:55:40;100205.19;;;2.70;80.85
46942;BME280;32676;52.630;4.896;2023-03-12T00:58:07;100201.75;;;2.68;80.56
46942;BME280;32676;52.630;4.896;2023-03-12T01:00:33;100195.72;;;2.67;80.78
46942;BME280;32676;52.630;4.896;2023-03-12T01:03:00;100185.38;;;2.64;80.50
46942;BME280;32676;52.630;4.896;2023-03-12T01:05:26;100176.75;;;2.62;80.42
46942;BME280;32676;52.630;4.896;2023-03-12T01:07:53;100171.56;;;2.62;80.36
46942;BME280;32676;52.630;4.896;2023-03-12T01:10:21;100167.22;;;2.61;80.26
46942;BME280;32676;52.630;4.896;2023-03-12T01:12:48;100167.25;;;2.60;79.93
46942;BME280;32676;52.630;4.896;2023-03-12T01:15:16;100181.03;;;2.63;79.64
46942;BME280;32676;52.630;4.896;2023-03-12T01:17:43;100200.03;;;2.67;79.53
46942;BME280;32676;52.630;4.896;2023-03-12T01:20:10;100211.22;;;2.71;79.02
46942;BME280;32676;52.630;4.896;2023-03-12T01:22:37;100194.81;;;2.68;78.60
46942;BME280;32676;52.630;4.896;2023-03-12T01:25:04;100209.53;;;2.66;78.26
46942;BME280;32676;52.630;4.896;2023-03-12T01:27:32;100192.22;;;2.68;77.71
46942;BME280;32676;52.630;4.896;2023-03-12T01:29:59;100212.97;;;2.68;77.38
46942;BME280;32676;52.630;4.896;2023-03-12T01:32:25;100209.53;;;2.69;77.15
46942;BME280;32676;52.630;4.896;2023-03-12T01:34:52;100209.53;;;2.69;76.82
46942;BME280;32676;52.630;4.896;2023-03-12T01:37:18;100211.22;;;2.71;76.56
46942;BME280;32676;52.630;4.896;2023-03-12T01:39:45;100222.44;;;2.73;76.17
46942;BME280;32676;52.630;4.896;2023-03-12T01:42:11;100231.06;;;2.75;75.73
46942;BME280;32676;52.630;4.896;2023-03-12T01:44:50;100232.81;;;2.76;75.57
46942;BME280;32676;52.630;4.896;2023-03-12T01:47:17;100241.44;;;2.76;75.21
46942;BME280;32676;52.630;4.896;2023-03-12T01:49:44;100253.47;;;2.82;74.99
46942;BME280;32676;52.630;4.896;2023-03-12T01:52:12;100262.13;;;2.84;74.82
46942;BME280;32676;52.630;4.896;2023-03-12T01:54:42;100274.22;;;2.85;74.68
46942;BME280;32676;52.630;4.896;2023-03-12T01:57:13;100271.63;;;2.85;74.48
46942;BME280;32676;52.630;4.896;2023-03-12T01:59:43;100274.22;;;2.86;74.08
46942;BME280;32676;52.630;4.896;2023-03-12T02:02:13;100271.63;;;2.85;73.90
46942;BME280;32676;52.630;4.896;2023-03-12T02:04:41;100263.06;;;2.77;73.52
46942;BME280;32676;52.630;4.896;2023-03-12T02:07:11;100273.41;;;2.80;73.26
46942;BME280;32676;52.630;4.896;2023-03-12T02:09:40;100288.88;;;2.89;72.75
46942;BME280;32676;52.630;4.896;2023-03-12T02:12:08;100286.31;;;2.87;72.44
46942;BME280;32676;52.630;4.896;2023-03-12T02:14:35;100287.16;;;2.88;72.17
46942;BME280;32676;52.630;4.896;2023-03-12T02:17:02;100287.16;;;2.88;71.64
46942;BME280;32676;52.630;4.896;2023-03-12T02:19:36;100287.16;;;2.88;71.59
46942;BME280;32676;52.630;4.896;2023-03-12T02:22:05;100286.31;;;2.87;71.31
46942;BME280;32676;52.630;4.896;2023-03-12T02:24:36;100283.72;;;2.86;71.19
46942;BME280;32676;52.630;4.896;2023-03-12T02:27:08;100288.88;;;2.89;71.16
46942;BME280;32676;52.630;4.896;2023-03-12T02:29:40;100291.47;;;2.91;71.03
46942;BME280;32676;52.630;4.896;2023-03-12T02:32:08;100288.88;;;2.89;71.01
46942;BME280;32676;52.630;4.896;2023-03-12T02:34:40;100279.41;;;2.86;70.82
46942;BME280;32676;52.630;4.896;2023-03-12T02:37:07;100280.25;;;2.87;70.85
46942;BME280;32676;52.630;4.896;2023-03-12T02:39:33;100281.13;;;2.86;70.79
46942;BME280;32676;52.630;4.896;2023-03-12T02:42:01;100286.28;;;2.89;70.66
46942;BME280;32676;52.630;4.896;2023-03-12T02:44:31;100288.94;;;2.86;70.54
46942;BME280;32676;52.630;4.896;2023-03-12T02:47:00;100285.50;;;2.81;70.55
46942;BME280;32676;52.630;4.896;2023-03-12T02:49:29;100294.06;;;2.89;70.67
46942;BME280;32676;52.630;4.896;2023-03-12T02:51:56;100294.94;;;2.90;70.68
46942;BME280;32676;52.630;4.896;2023-03-12T02:54:23;100287.19;;;2.85;70.72
46942;BME280;32676;52.630;4.896;2023-03-12T02:56:51;100297.56;;;2.88;70.57
46942;BME280;32676;52.630;4.896;2023-03-12T02:59:19;100294.06;;;2.89;70.65
46942;BME280;32676;52.630;4.896;2023-03-12T03:01:51;100299.22;;;2.92;70.47
46942;BME280;32676;52.630;4.896;2023-03-12T03:04:19;100312.19;;;2.94;70.37
46942;BME280;32676;52.630;4.896;2023-03-12T03:06:45;100315.66;;;2.94;70.39
46942;BME280;32676;52.630;4.896;2023-03-12T03:09:12;100321.69;;;2.96;70.33
46942;BME280;32676;52.630;4.896;2023-03-12T03:11:39;100315.63;;;2.96;70.44
46942;BME280;32676;52.630;4.896;2023-03-12T03:14:05;100312.19;;;2.94;70.61
46942;BME280;32676;52.630;4.896;2023-03-12T03:16:33;100320.81;;;2.97;70.40
46942;BME280;32676;52.630;4.896;2023-03-12T03:19:01;100321.69;;;2.96;70.46
46942;BME280;32676;52.630;4.896;2023-03-12T03:21:28;100318.22;;;2.97;70.56
46942;BME280;32676;52.630;4.896;2023-03-12T03:23:55;100314.78;;;2.95;70.57
46942;BME280;32676;52.630;4.896;2023-03-12T03:26:23;100321.69;;;2.96;70.54
46942;BME280;32676;52.630;4.896;2023-03-12T03:28:50;100311.34;;;2.93;70.78
46942;BME280;32676;52.630;4.896;2023-03-12T03:31:16;100307.03;;;2.92;70.67
46942;BME280;32676;52.630;4.896;2023-03-12T03:33:43;100303.56;;;2.92;70.85
46942;BME280;32676;52.630;4.896;2023-03-12T03:36:11;100305.31;;;2.91;70.80
46942;BME280;32676;52.630;4.896;2023-03-12T03:38:39;100293.22;;;2.87;71.00
46942;BME280;32676;52.630;4.896;2023-03-12T03:41:06;100303.56;;;2.92;71.02
46942;BME280;32676;52.630;4.896;2023-03-12T03:43:33;100294.97;;;2.88;71.53
46942;BME280;32676;52.630;4.896;2023-03-12T03:46:01;100290.63;;;2.87;71.57
46942;BME280;32676;52.630;4.896;2023-03-12T03:48:29;100284.59;;;2.85;71.64
46942;BME280;32676;52.630;4.896;2023-03-12T03:50:58;100287.19;;;2.86;71.90
46942;BME280;32676;52.630;4.896;2023-03-12T03:53:26;100282.00;;;2.85;71.74
46942;BME280;32676;52.630;4.896;2023-03-12T03:55:53;100293.22;;;2.87;72.00
46942;BME280;32676;52.630;4.896;2023-03-12T03:58:19;100291.50;;;2.87;72.12
46942;BME280;32676;52.630;4.896;2023-03-12T04:00:46;100293.22;;;2.88;72.23
46942;BME280;32676;52.630;4.896;2023-03-12T04:03:12;100299.25;;;2.89;72.41
46942;BME280;32676;52.630;4.896;2023-03-12T04:05:39;100295.81;;;2.87;72.42
46942;BME280;32676;52.630;4.896;2023-03-12T04:08:09;100281.16;;;2.84;72.46
46942;BME280;32676;52.630;4.896;2023-03-12T04:10:37;100288.94;;;2.86;72.25
46942;BME280;32676;52.630;4.896;2023-03-12T04:13:04;100277.66;;;2.85;72.30
46942;BME280;32676;52.630;4.896;2023-03-12T04:15:31;100287.16;;;2.88;72.32
46942;BME280;32676;52.630;4.896;2023-03-12T04:17:57;100313.09;;;2.91;72.42
46942;BME280;32676;52.630;4.896;2023-03-12T04:20:23;100326.88;;;2.96;72.83
46942;BME280;32676;52.630;4.896;2023-03-12T04:22:50;100307.91;;;2.91;72.54
46942;BME280;32676;52.630;4.896;2023-03-12T04:25:16;100320.84;;;2.94;72.61
46942;BME280;32676;52.630;4.896;2023-03-12T04:27:44;100325.16;;;2.95;72.69
46942;BME280;32676;52.630;4.896;2023-03-12T04:30:12;100312.19;;;2.94;72.78
46942;BME280;32676;52.630;4.896;2023-03-12T04:32:38;100316.53;;;2.93;72.89
46942;BME280;32676;52.630;4.896;2023-03-12T04:35:05;100312.22;;;2.92;72.84
46942;BME280;32676;52.630;4.896;2023-03-12T04:37:32;100313.94;;;2.93;72.76
46942;BME280;32676;52.630;4.896;2023-03-12T04:40:00;100330.34;;;2.95;72.74
46942;BME280;32676;52.630;4.896;2023-03-12T04:42:27;100336.38;;;2.99;72.68
46942;BME280;32676;52.630;4.896;2023-03-12T04:44:55;100348.44;;;3.01;72.29
46942;BME280;32676;52.630;4.896;2023-03-12T04:47:22;100357.09;;;3.03;72.38
46942;BME280;32676;52.630;4.896;2023-03-12T04:49:48;100354.47;;;3.03;72.22
46942;BME280;32676;52.630;4.896;2023-03-12T04:52:16;100364.84;;;3.06;72.03
46942;BME280;32676;52.630;4.896;2023-03-12T04:54:42;100376.97;;;3.07;72.01
46942;BME280;32676;52.630;4.896;2023-03-12T04:57:09;100389.91;;;3.09;71.81
46942;BME280;32676;52.630;4.896;2023-03-12T04:59:35;100377.81;;;3.08;72.12
46942;BME280;32676;52.630;4.896;2023-03-12T05:02:03;100368.28;;;3.07;72.26
46942;BME280;32676;52.630;4.896;2023-03-12T05:04:30;100372.63;;;3.06;72.44
46942;BME280;32676;52.630;4.896;2023-03-12T05:06:56;100370.91;;;3.07;72.45
46942;BME280;32676;52.630;4.896;2023-03-12T05:09:23;100382.16;;;3.07;72.88
46942;BME280;32676;52.630;4.896;2023-03-12T05:11:49;100367.44;;;3.05;73.17
46942;BME280;32676;52.630;4.896;2023-03-12T05:14:16;100378.66;;;3.08;73.50
46942;BME280;32676;52.630;4.896;2023-03-12T05:16:42;100370.03;;;3.06;73.88
46942;BME280;32676;52.630;4.896;2023-03-12T05:19:10;100373.50;;;3.07;74.27
46942;BME280;32676;52.630;4.896;2023-03-12T05:21:38;100369.19;;;3.06;74.62
46942;BME280;32676;52.630;4.896;2023-03-12T05:24:06;100368.31;;;3.05;74.83
46942;BME280;32676;52.630;4.896;2023-03-12T05:26:33;100357.97;;;3.02;75.37
46942;BME280;32676;52.630;4.896;2023-03-12T05:29:00;100357.97;;;3.02;75.66
46942;BME280;32676;52.630;4.896;2023-03-12T05:31:28;100349.34;;;3.00;76.01
46942;BME280;32676;52.630;4.896;2023-03-12T05:33:57;100341.56;;;2.99;76.39
46942;BME280;32676;52.630;4.896;2023-03-12T05:36:25;100323.44;;;2.94;76.87
46942;BME280;32676;52.630;4.896;2023-03-12T05:38:52;100343.28;;;3.00;76.94
46942;BME280;32676;52.630;4.896;2023-03-12T05:41:23;100349.34;;;3.00;77.31
46942;BME280;32676;52.630;4.896;2023-03-12T05:43:51;100345.88;;;2.98;77.67
46942;BME280;32676;52.630;4.896;2023-03-12T05:46:17;100344.16;;;2.99;78.02
46942;BME280;32676;52.630;4.896;2023-03-12T05:48:44;100344.16;;;3.00;78.17
46942;BME280;32676;52.630;4.896;2023-03-12T05:51:10;100336.38;;;2.97;78.19
46942;BME280;32676;52.630;4.896;2023-03-12T05:53:38;100332.06;;;2.96;78.47
46942;BME280;32676;52.630;4.896;2023-03-12T05:56:09;100332.06;;;2.96;78.64
46942;BME280;32676;52.630;4.896;2023-03-12T05:58:36;100332.06;;;2.96;78.75
46942;BME280;32676;52.630;4.896;2023-03-12T06:01:09;100334.66;;;2.96;78.98
46942;BME280;32676;52.630;4.896;2023-03-12T06:03:36;100344.16;;;2.97;79.16
46942;BME280;32676;52.630;4.896;2023-03-12T06:06:03;100341.56;;;2.99;79.04
46942;BME280;32676;52.630;4.896;2023-03-12T06:08:29;100344.16;;;3.00;79.35
46942;BME280;32676;52.630;4.896;2023-03-12T06:10:57;100353.66;;;3.01;79.47
46942;BME280;32676;52.630;4.896;2023-03-12T06:13:24;100348.50;;;2.97;79.41
46942;BME280;32676;52.630;4.896;2023-03-12T06:15:52;100364.91;;;3.00;79.35
46942;BME280;32676;52.630;4.896;2023-03-12T06:18:18;100370.03;;;3.06;79.63
46942;BME280;32676;52.630;4.896;2023-03-12T06:20:45;100347.63;;;2.99;79.84
46942;BME280;32676;52.630;4.896;2023-03-12T06:23:11;100344.16;;;2.97;80.46
46942;BME280;32676;52.630;4.896;2023-03-12T06:25:38;100345.88;;;2.98;80.76
46942;BME280;32676;52.630;4.896;2023-03-12T06:28:06;100330.34;;;2.95;81.07
46942;BME280;32676;52.630;4.896;2023-03-12T06:30:32;100356.25;;;3.01;81.71
46942;BME280;32676;52.630;4.896;2023-03-12T06:32:59;100391.66;;;3.08;82.12
46942;BME280;32676;52.630;4.896;2023-03-12T06:35:28;100405.47;;;3.12;82.60
46942;BME280;32676;52.630;4.896;2023-03-12T06:37:54;100428.75;;;3.20;82.74
46942;BME280;32676;52.630;4.896;2023-03-12T06:40:21;100451.25;;;3.24;83.00
46942;BME280;32676;52.630;4.896;2023-03-12T06:42:47;100456.44;;;3.24;83.49
46942;BME280;32676;52.630;4.896;2023-03-12T06:45:15;100459.00;;;3.27;83.52
46942;BME280;32676;52.630;4.896;2023-03-12T06:47:42;100481.47;;;3.31;83.72
46942;BME280;32676;52.630;4.896;2023-03-12T06:50:09;100497.00;;;3.36;84.00
46942;BME280;32676;52.630;4.896;2023-03-12T06:52:36;100494.41;;;3.34;84.10
46942;BME280;32676;52.630;4.896;2023-03-12T06:55:03;100508.25;;;3.36;84.15
46942;BME280;32676;52.630;4.896;2023-03-12T06:57:29;100519.47;;;3.41;84.34
46942;BME280;32676;52.630;4.896;2023-03-12T06:59:56;100517.75;;;3.40;84.33
46942;BME280;32676;52.630;4.896;2023-03-12T07:02:23;100529.84;;;3.43;84.54
46942;BME280;32676;52.630;4.896;2023-03-12T07:04:50;100530.69;;;3.43;84.63
46942;BME280;32676;52.630;4.896;2023-03-12T07:07:16;100549.72;;;3.45;84.57
46942;BME280;32676;52.630;4.896;2023-03-12T07:09:44;100567.00;;;3.53;84.86
46942;BME280;32676;52.630;4.896;2023-03-12T07:12:10;100573.94;;;3.54;84.72
46942;BME280;32676;52.630;4.896;2023-03-12T07:14:37;100597.25;;;3.58;84.97
46942;BME280;32676;52.630;4.896;2023-03-12T07:17:04;100587.75;;;3.57;84.94
46942;BME280;32676;52.630;4.896;2023-03-12T07:19:31;100580.84;;;3.55;84.95
46942;BME280;32676;52.630;4.896;2023-03-12T07:21:58;100573.94;;;3.54;85.12
46942;BME280;32676;52.630;4.896;2023-03-12T07:24:24;100558.41;;;3.48;84.90
46942;BME280;32676;52.630;4.896;2023-03-12T07:26:51;100558.41;;;3.48;84.91
46942;BME280;32676;52.630;4.896;2023-03-12T07:29:17;100576.53;;;3.52;85.09
46942;BME280;32676;52.630;4.896;2023-03-12T07:31:44;100582.56;;;3.56;85.29
46942;BME280;32676;52.630;4.896;2023-03-12T07:34:12;100601.59;;;3.59;85.24
46942;BME280;32676;52.630;4.896;2023-03-12T07:36:40;100614.56;;;3.62;85.16
46942;BME280;32676;52.630;4.896;2023-03-12T07:39:06;100632.75;;;3.64;85.11
46942;BME280;32676;52.630;4.896;2023-03-12T07:41:33;100644.81;;;3.71;85.19
46942;BME280;32676;52.630;4.896;2023-03-12T07:44:01;100648.28;;;3.73;85.28
46942;BME280;32676;52.630;4.896;2023-03-12T07:46:28;100700.19;;;3.82;85.16
46942;BME280;32676;52.630;4.896;2023-03-12T07:48:54;100707.06;;;3.87;85.13
46942;BME280;32676;52.630;4.896;2023-03-12T07:51:21;100716.56;;;3.89;85.16
46942;BME280;32676;52.630;4.896;2023-03-12T07:53:49;100745.16;;;3.95;85.15
46942;BME280;32676;52.630;4.896;2023-03-12T07:56:15;100758.09;;;4.00;85.27
46942;BME280;32676;52.630;4.896;2023-03-12T07:58:42;100776.28;;;4.03;85.28
46942;BME280;32676;52.630;4.896;2023-03-12T08:01:08;100783.25;;;4.01;85.29
46942;BME280;32676;52.630;4.896;2023-03-12T08:03:35;100798.78;;;4.10;85.42
46942;BME280;32676;52.630;4.896;2023-03-12T08:06:03;100826.50;;;4.14;85.44
46942;BME280;32676;52.630;4.896;2023-03-12T08:08:30;100824.78;;;4.13;85.41
46942;BME280;32676;52.630;4.896;2023-03-12T08:10:59;100825.63;;;4.12;85.52
46942;BME280;32676;52.630;4.896;2023-03-12T08:13:26;100831.69;;;4.16;85.82
46942;BME280;32676;52.630;4.896;2023-03-12T08:15:53;100828.22;;;4.15;85.78
46942;BME280;32676;52.630;4.896;2023-03-12T08:18:21;100838.63;;;4.18;86.00
46942;BME280;32676;52.630;4.896;2023-03-12T08:20:49;100857.63;;;4.23;86.09
46942;BME280;32676;52.630;4.896;2023-03-12T08:23:16;100869.78;;;4.25;86.16
46942;BME280;32676;52.630;4.896;2023-03-12T08:25:44;100880.19;;;4.28;86.15
46942;BME280;32676;52.630;4.896;2023-03-12T08:28:12;100894.03;;;4.30;86.44
46942;BME280;32676;52.630;4.896;2023-03-12T08:30:43;100911.34;;;4.37;86.47
46942;BME280;32676;52.630;4.896;2023-03-12T08:33:10;100952.91;;;4.43;86.59
46942;BME280;32676;52.630;4.896;2023-03-12T08:35:36;100977.19;;;4.48;86.81
46942;BME280;32676;52.630;4.896;2023-03-12T08:38:03;101004.06;;;4.55;86.86
46942;BME280;32676;52.630;4.896;2023-03-12T08:40:29;101017.88;;;4.60;87.06
46942;BME280;32676;52.630;4.896;2023-03-12T08:42:55;101042.16;;;4.67;86.90
46942;BME280;32676;52.630;4.896;2023-03-12T08:45:23;101053.41;;;4.69;86.82
46942;BME280;32676;52.630;4.896;2023-03-12T08:47:50;101086.38;;;4.76;86.94
46942;BME280;32676;52.630;4.896;2023-03-12T08:50:16;101124.50;;;4.86;87.03
46942;BME280;32676;52.630;4.896;2023-03-12T08:52:45;101134.91;;;4.89;87.08
46942;BME280;32676;52.630;4.896;2023-03-12T08:55:12;101153.13;;;4.91;87.05
46942;BME280;32676;52.630;4.896;2023-03-12T08:57:39;101165.25;;;4.96;87.04
46942;BME280;32676;52.630;4.896;2023-03-12T09:00:07;101191.28;;;5.03;87.18
46942;BME280;32676;52.630;4.896;2023-03-12T09:02:38;101230.31;;;5.12;87.29
46942;BME280;32676;52.630;4.896;2023-03-12T09:05:05;101261.56;;;5.21;87.38
46942;BME280;32676;52.630;4.896;2023-03-12T09:07:32;101280.66;;;5.26;87.65
46942;BME280;32676;52.630;4.896;2023-03-12T09:09:58;101293.69;;;5.28;87.88
46942;BME280;32676;52.630;4.896;2023-03-12T09:12:25;101318.84;;;5.33;87.84
46942;BME280;32676;52.630;4.896;2023-03-12T09:14:52;101308.41;;;5.33;87.90
46942;BME280;32676;52.630;4.896;2023-03-12T09:17:18;101341.41;;;5.37;87.89
46942;BME280;32676;52.630;4.896;2023-03-12T09:19:46;101372.66;;;5.47;88.23
46942;BME280;32676;52.630;4.896;2023-03-12T09:22:12;101403.91;;;5.54;88.11
46942;BME280;32676;52.630;4.896;2023-03-12T09:24:39;101435.19;;;5.62;88.50
46942;BME280;32676;52.630;4.896;2023-03-12T09:27:05;101467.31;;;5.69;88.45
46942;BME280;32676;52.630;4.896;2023-03-12T09:29:32;101471.69;;;5.71;88.68
46942;BME280;32676;52.630;4.896;2023-03-12T09:32:00;101508.16;;;5.77;88.67
46942;BME280;32676;52.630;4.896;2023-03-12T09:34:27;101529.00;;;5.87;88.67
46942;BME280;32676;52.630;4.896;2023-03-12T09:36:54;101551.59;;;5.91;88.87
46942;BME280;32676;52.630;4.896;2023-03-12T09:39:21;101577.72;;;5.97;89.10
46942;BME280;32676;52.630;4.896;2023-03-12T09:41:48;101613.38;;;6.06;89.23
46942;BME280;32676;52.630;4.896;2023-03-12T09:44:19;101655.97;;;6.15;89.40
46942;BME280;32676;52.630;4.896;2023-03-12T09:46:52;101702.94;;;6.25;89.57
46942;BME280;32676;52.630;4.896;2023-03-12T09:49:24;101742.97;;;6.36;89.86
46942;BME280;32676;52.630;4.896;2023-03-12T09:51:57;101784.72;;;6.48;89.95
46942;BME280;32676;52.630;4.896;2023-03-12T09:54:28;101843.03;;;6.60;89.99
46942;BME280;32676;52.630;4.896;2023-03-12T09:57:02;101909.22;;;6.76;90.29
46942;BME280;32676;52.630;4.896;2023-03-12T09:59:29;101974.56;;;6.92;90.58
46942;BME280;32676;52.630;4.896;2023-03-12T10:01:58;102046.00;;;7.07;90.99
46942;BME280;32676;52.630;4.896;2023-03-12T10:04:34;102111.38;;;7.24;91.29
46942;BME280;32676;52.630;4.896;2023-03-12T10:07:06;102164.56;;;7.37;91.41
46942;BME280;32676;52.630;4.896;2023-03-12T10:09:46;102209.06;;;7.49;91.51
46942;BME280;32676;52.630;4.896;2023-03-12T10:12:24;102255.31;;;7.59;91.62
46942;BME280;32676;52.630;4.896;2023-03-12T10:15:02;102290.22;;;7.67;91.53
46942;BME280;32676;52.630;4.896;2023-03-12T10:17:47;102337.38;;;7.77;91.55
46942;BME280;32676;52.630;4.896;2023-03-12T10:20:31;102390.63;;;7.93;91.45
46942;BME280;32676;52.630;4.896;2023-03-12T10:23:04;102449.13;;;8.05;91.39
46942;BME280;32676;52.630;4.896;2023-03-12T10:25:38;102505.06;;;8.20;91.14
46942;BME280;32676;52.630;4.896;2023-03-12T10:28:12;102559.25;;;8.33;91.01
46942;BME280;32676;52.630;4.896;2023-03-12T10:30:45;102610.84;;;8.43;90.79
46942;BME280;32676;52.630;4.896;2023-03-12T10:33:16;102671.22;;;8.59;90.41
46942;BME280;32676;52.630;4.896;2023-03-12T10:35:43;102698.31;;;8.62;90.30
46942;BME280;32676;52.630;4.896;2023-03-12T10:38:14;102733.28;;;8.72;89.77
46942;BME280;32676;52.630;4.896;2023-03-12T10:40:42;102781.41;;;8.83;89.62
46942;BME280;32676;52.630;4.896;2023-03-12T10:43:08;102799.78;;;8.87;89.08
46942;BME280;32676;52.630;4.896;2023-03-12T10:45:38;102825.19;;;8.94;88.65
46942;BME280;32676;52.630;4.896;2023-03-12T10:48:06;102853.22;;;9.01;88.33
46942;BME280;32676;52.630;4.896;2023-03-12T10:50:35;102900.50;;;9.13;87.78
46942;BME280;32676;52.630;4.896;2023-03-12T10:53:19;102975.81;;;9.30;87.39
46942;BME280;32676;52.630;4.896;2023-03-12T10:56:01;103046.78;;;9.47;87.01
46942;BME280;32676;52.630;4.896;2023-03-12T10:58:32;103087.09;;;9.55;86.85
46942;BME280;32676;52.630;4.896;2023-03-12T11:01:00;103117.78;;;9.64;86.31
46942;BME280;32676;52.630;4.896;2023-03-12T11:03:28;103156.38;;;9.74;85.98
46942;BME280;32676;52.630;4.896;2023-03-12T11:05:57;103203.72;;;9.83;85.68
46942;BME280;32676;52.630;4.896;2023-03-12T11:08:27;103227.41;;;9.89;84.92
46942;BME280;32676;52.630;4.896;2023-03-12T11:10:56;103252.84;;;9.95;84.56
46942;BME280;32676;52.630;4.896;2023-03-12T11:13:26;103273.06;;;10.01;83.99
46942;BME280;32676;52.630;4.896;2023-03-12T11:15:54;103286.22;;;10.04;83.71
46942;BME280;32676;52.630;4.896;2023-03-12T11:18:29;103298.50;;;10.06;83.27
46942;BME280;32676;52.630;4.896;2023-03-12T11:21:12;103301.13;;;10.06;82.81
46942;BME280;32676;52.630;4.896;2023-03-12T11:23:42;103324.84;;;10.14;82.70
46942;BME280;32676;52.630;4.896;2023-03-12T11:26:15;103376.63;;;10.24;82.36
46942;BME280;32676;52.630;4.896;2023-03-12T11:28:45;103380.16;;;10.26;82.35
46942;BME280;32676;52.630;4.896;2023-03-12T11:31:19;103379.28;;;10.27;81.99
46942;BME280;32676;52.630;4.896;2023-03-12T11:33:46;103393.31;;;10.29;82.03
46942;BME280;32676;52.630;4.896;2023-03-12T11:36:22;103388.06;;;10.29;81.65
46942;BME280;32676;52.630;4.896;2023-03-12T11:39:00;103409.16;;;10.32;81.57
46942;BME280;32676;52.630;4.896;2023-03-12T11:41:38;103404.78;;;10.33;81.25
46942;BME280;32676;52.630;4.896;2023-03-12T11:44:26;103403.03;;;10.33;81.11
46942;BME280;32676;52.630;4.896;2023-03-12T11:47:04;103400.34;;;10.30;80.95
46942;BME280;32676;52.630;4.896;2023-03-12T11:49:47;103379.28;;;10.27;81.08
46942;BME280;32676;52.630;4.896;2023-03-12T11:52:21;103360.00;;;10.25;80.86
46942;BME280;32676;52.630;4.896;2023-03-12T11:55:15;103372.28;;;10.26;80.73
46942;BME280;32676;52.630;4.896;2023-03-12T11:57:55;103388.06;;;10.29;80.66
46942;BME280;32676;52.630;4.896;2023-03-12T12:00:32;103375.78;;;10.28;80.83
46942;BME280;32676;52.630;4.896;2023-03-12T12:03:38;103388.97;;;10.31;80.52
46942;BME280;32676;52.630;4.896;2023-03-12T12:06:12;103428.53;;;10.41;80.38
46942;BME280;32676;52.630;4.896;2023-03-12T12:09:01;103461.00;;;10.49;80.44
46942;BME280;32676;52.630;4.896;2023-03-12T12:11:40;103446.97;;;10.47;80.00
46942;BME280;32676;52.630;4.896;2023-03-12T12:14:16;103443.50;;;10.48;79.82
46942;BME280;32676;52.630;4.896;2023-03-12T12:16:57;103438.22;;;10.46;79.64
46942;BME280;32676;52.630;4.896;2023-03-12T12:19:38;103444.34;;;10.47;79.71
46942;BME280;32676;52.630;4.896;2023-03-12T12:22:28;103432.91;;;10.43;79.51
46942;BME280;32676;52.630;4.896;2023-03-12T12:25:16;103439.97;;;10.47;79.56
46942;BME280;32676;52.630;4.896;2023-03-12T12:27:53;103442.56;;;10.46;79.24
46942;BME280;32676;52.630;4.896;2023-03-12T12:30:26;103458.44;;;10.52;79.22
46942;BME280;32676;52.630;4.896;2023-03-12T12:33:06;103468.94;;;10.55;79.19
46942;BME280;32676;52.630;4.896;2023-03-12T12:35:35;103479.50;;;10.58;79.17
46942;BME280;32676;52.630;4.896;2023-03-12T12:38:06;103488.28;;;10.60;78.81
46942;BME280;32676;52.630;4.896;2023-03-12T12:40:37;103504.13;;;10.63;79.05
46942;BME280;32676;52.630;4.896;2023-03-12T12:43:20;103514.69;;;10.68;78.40
46942;BME280;32676;52.630;4.896;2023-03-12T12:45:51;103541.03;;;10.72;78.58
46942;BME280;32676;52.630;4.896;2023-03-12T12:48:21;103562.13;;;10.79;78.22
46942;BME280;32676;52.630;4.896;2023-03-12T12:50:51;103603.44;;;10.87;78.32
46942;BME280;32676;52.630;4.896;2023-03-12T12:53:22;103599.06;;;10.88;77.98
46942;BME280;32676;52.630;4.896;2023-03-12T12:55:55;103596.44;;;10.88;77.77
46942;BME280;32676;52.630;4.896;2023-03-12T12:58:42;103590.25;;;10.86;77.61
46942;BME280;32676;52.630;4.896;2023-03-12T13:01:10;103570.94;;;10.84;77.63
46942;BME280;32676;52.630;4.896;2023-03-12T13:03:39;103585.00;;;10.86;77.29
46942;BME280;32676;52.630;4.896;2023-03-12T13:06:06;103595.56;;;10.89;77.39
46942;BME280;32676;52.630;4.896;2023-03-12T13:08:50;103611.38;;;10.92;77.09